sensor_id;sensor_type;location;lat;lon;timestamp;temperature;humidity
26051;DHT22;13825;53.496;10.020;2023-08-07T00:01:19;16.00;4.60
26051;DHT22;13825;53.496;10.020;2023-08-07T00:03:48;16.00;78.00
26051;DHT22;13825;53.496;10.020;2023-08-07T00:06:16;16.00;1.00
26051;DHT22;13825;53.496;10.020;2023-08-07T00:08:43;16.00;1.00
26051;DHT22;13825;53.496;10.020;2023-08-07T00:11:10;15.90;1.00
26051;DHT22;13825;53.496;10.020;2023-08-07T00:13:40;15.90;1.00
26051;DHT22;13825;53.496;10.020;2023-08-07T00:16:07;15.90;1.00
26051;DHT22;13825;53.496;10.020;2023-08-07T00:18:35;15.90;1.00
26051;DHT22;13825;53.496;10.020;2023-08-07T00:21:02;15.80;1.00
26051;DHT22;13825;53.496;10.020;2023-08-07T00:23:31;15.80;1.00
26051;DHT22;13825;53.496;10.020;2023-08-07T00:25:57;15.80;1.00
26051;DHT22;13825;53.496;10.020;2023-08-07T00:28:24;15.80;1.00
26051;DHT22;13825;53.496;10.020;2023-08-07T00:30:51;15.80;1.00
26051;DHT22;13825;53.496;10.020;2023-08-07T00:33:18;15.80;1.00
26051;DHT22;13825;53.496;10.020;2023-08-07T00:35:45;15.80;1.00
26051;DHT22;13825;53.496;10.020;2023-08-07T00:38:12;15.80;21.80
26051;DHT22;13825;53.496;10.020;2023-08-07T00:40:41;15.80;1.00
26051;DHT22;13825;53.496;10.020;2023-08-07T00:43:08;15.80;74.60
26051;DHT22;13825;53.496;10.020;2023-08-07T00:45:38;15.70;99.90
26051;DHT22;13825;53.496;10.020;2023-08-07T00:48:07;15.70;99.90
26051;DHT22;13825;53.496;10.020;2023-08-07T00:50:35;15.70;99.90
26051;DHT22;13825;53.496;10.020;2023-08-07T00:53:02;15.70;99.90
26051;DHT22;13825;53.496;10.020;2023-08-07T00:55:29;15.70;99.90
26051;DHT22;13825;53.496;10.020;2023-08-07T00:57:58;15.70;99.90
26051;DHT22;13825;53.496;10.020;2023-08-07T01:00:26;15.70;99.90
26051;DHT22;13825;53.496;10.020;2023-08-07T01:02:54;15.80;99.90
26051;DHT22;13825;53.496;10.020;2023-08-07T01:05:23;15.70;99.90
26051;DHT22;13825;53.496;10.020;2023-08-07T01:07:50;15.90;99.90
26051;DHT22;13825;53.496;10.020;2023-08-07T01:10:24;15.90;45.10
26051;DHT22;13825;53.496;10.020;2023-08-07T01:12:56;15.80;99.90
26051;DHT22;13825;53.496;10.020;2023-08-07T01:15:30;15.70;99.90
26051;DHT22;13825;53.496;10.020;2023-08-07T01:17:57;15.70;99.90
26051;DHT22;13825;53.496;10.020;2023-08-07T01:20:25;15.70;99.90
26051;DHT22;13825;53.496;10.020;2023-08-07T01:22:53;15.70;99.90
26051;DHT22;13825;53.496;10.020;2023-08-07T01:25:21;15.60;99.90
26051;DHT22;13825;53.496;10.020;2023-08-07T01:27:55;15.60;99.90
26051;DHT22;13825;53.496;10.020;2023-08-07T01:30:29;15.60;99.90
26051;DHT22;13825;53.496;10.020;2023-08-07T01:33:02;15.50;99.90
26051;DHT22;13825;53.496;10.020;2023-08-07T01:35:34;15.50;99.90
26051;DHT22;13825;53.496;10.020;2023-08-07T01:38:05;15.40;99.90
26051;DHT22;13825;53.496;10.020;2023-08-07T01:40:32;15.30;99.90
26051;DHT22;13825;53.496;10.020;2023-08-07T01:43:00;15.40;99.90
26051;DHT22;13825;53.496;10.020;2023-08-07T01:45:28;15.30;99.90
26051;DHT22;13825;53.496;10.020;2023-08-07T01:47:55;15.20;99.90
26051;DHT22;13825;53.496;10.020;2023-08-07T01:50:24;15.20;99.90
26051;DHT22;13825;53.496;10.020;2023-08-07T01:52:50;15.20;99.90
26051;DHT22;13825;53.496;10.020;2023-08-07T01:55:19;15.10;99.90
26051;DHT22;13825;53.496;10.020;2023-08-07T01:57:46;15.00;99.90
26051;DHT22;13825;53.496;10.020;2023-08-07T02:00:14;15.00;99.90
26051;DHT22;13825;53.496;10.020;2023-08-07T02:02:40;15.00;99.90
26051;DHT22;13825;53.496;10.020;2023-08-07T02:05:07;14.90;99.90
26051;DHT22;13825;53.496;10.020;2023-08-07T02:07:34;14.90;99.90
26051;DHT22;13825;53.496;10.020;2023-08-07T02:10:01;14.90;99.90
26051;DHT22;13825;53.496;10.020;2023-08-07T02:12:30;14.90;99.90
26051;DHT22;13825;53.496;10.020;2023-08-07T02:14:57;14.90;99.90
26051;DHT22;13825;53.496;10.020;2023-08-07T02:17:24;14.90;99.90
26051;DHT22;13825;53.496;10.020;2023-08-07T02:19:52;14.80;99.90
26051;DHT22;13825;53.496;10.020;2023-08-07T02:22:19;14.90;99.90
26051;DHT22;13825;53.496;10.020;2023-08-07T02:24:46;14.80;99.90
26051;DHT22;13825;53.496;10.020;2023-08-07T02:27:13;14.90;99.90
26051;DHT22;13825;53.496;10.020;2023-08-07T02:29:41;14.90;99.90
26051;DHT22;13825;53.496;10.020;2023-08-07T02:32:08;14.90;99.90
26051;DHT22;13825;53.496;10.020;2023-08-07T02:34:35;14.90;99.90
26051;DHT22;13825;53.496;10.020;2023-08-07T02:37:02;14.90;99.90
26051;DHT22;13825;53.496;10.020;2023-08-07T02:39:29;15.00;99.90
26051;DHT22;13825;53.496;10.020;2023-08-07T02:41:56;14.90;99.90
26051;DHT22;13825;53.496;10.020;2023-08-07T02:44:23;14.90;99.90
26051;DHT22;13825;53.496;10.020;2023-08-07T02:46:51;14.90;99.90
26051;DHT22;13825;53.496;10.020;2023-08-07T02:49:18;14.90;99.90
26051;DHT22;13825;53.496;10.020;2023-08-07T02:51:45;15.00;99.90
26051;DHT22;13825;53.496;10.020;2023-08-07T02:54:12;15.00;99.90
26051;DHT22;13825;53.496;10.020;2023-08-07T02:56:39;15.00;99.90
26051;DHT22;13825;53.496;10.020;2023-08-07T02:59:06;15.00;99.90
26051;DHT22;13825;53.496;10.020;2023-08-07T03:01:33;15.00;99.90
26051;DHT22;13825;53.496;10.020;2023-08-07T03:04:01;15.00;99.90
26051;DHT22;13825;53.496;10.020;2023-08-07T03:06:28;15.00;99.90
26051;DHT22;13825;53.496;10.020;2023-08-07T03:08:55;15.00;99.90
26051;DHT22;13825;53.496;10.020;2023-08-07T03:11:22;15.00;99.90
26051;DHT22;13825;53.496;10.020;2023-08-07T03:13:49;15.00;99.90
26051;DHT22;13825;53.496;10.020;2023-08-07T03:16:16;15.00;99.90
26051;DHT22;13825;53.496;10.020;2023-08-07T03:18:43;15.00;99.90
26051;DHT22;13825;53.496;10.020;2023-08-07T03:21:11;15.00;99.90
26051;DHT22;13825;53.496;10.020;2023-08-07T03:23:38;15.00;99.90
26051;DHT22;13825;53.496;10.020;2023-08-07T03:26:06;15.00;99.90
26051;DHT22;13825;53.496;10.020;2023-08-07T03:28:33;15.10;99.90
26051;DHT22;13825;53.496;10.020;2023-08-07T03:31:00;15.00;99.90
26051;DHT22;13825;53.496;10.020;2023-08-07T03:33:27;15.00;99.90
26051;DHT22;13825;53.496;10.020;2023-08-07T03:35:54;15.10;99.90
26051;DHT22;13825;53.496;10.020;2023-08-07T03:38:23;15.10;99.90
26051;DHT22;13825;53.496;10.020;2023-08-07T03:40:50;15.10;99.90
26051;DHT22;13825;53.496;10.020;2023-08-07T03:43:17;15.10;99.90
26051;DHT22;13825;53.496;10.020;2023-08-07T03:45:43;15.10;99.90
26051;DHT22;13825;53.496;10.020;2023-08-07T03:48:10;15.10;99.90
26051;DHT22;13825;53.496;10.020;2023-08-07T03:50:37;15.10;99.90
26051;DHT22;13825;53.496;10.020;2023-08-07T03:53:05;15.10;99.90
26051;DHT22;13825;53.496;10.020;2023-08-07T03:55:34;15.10;99.90
26051;DHT22;13825;53.496;10.020;2023-08-07T03:58:02;15.00;99.90
26051;DHT22;13825;53.496;10.020;2023-08-07T04:00:29;15.00;99.90
26051;DHT22;13825;53.496;10.020;2023-08-07T04:02:56;15.10;99.90
26051;DHT22;13825;53.496;10.020;2023-08-07T04:05:22;15.00;99.90
26051;DHT22;13825;53.496;10.020;2023-08-07T04:07:49;15.00;99.90
26051;DHT22;13825;53.496;10.020;2023-08-07T04:10:16;15.00;99.90
26051;DHT22;13825;53.496;10.020;2023-08-07T04:12:45;15.10;99.90
26051;DHT22;13825;53.496;10.020;2023-08-07T04:15:11;15.00;99.90
26051;DHT22;13825;53.496;10.020;2023-08-07T04:17:38;15.00;99.90
26051;DHT22;13825;53.496;10.020;2023-08-07T04:20:07;15.00;99.90
26051;DHT22;13825;53.496;10.020;2023-08-07T04:22:34;15.00;99.90
26051;DHT22;13825;53.496;10.020;2023-08-07T04:25:01;15.00;99.90
26051;DHT22;13825;53.496;10.020;2023-08-07T04:27:28;15.00;99.90
26051;DHT22;13825;53.496;10.020;2023-08-07T04:29:56;15.10;99.90
26051;DHT22;13825;53.496;10.020;2023-08-07T04:32:23;15.00;99.90
26051;DHT22;13825;53.496;10.020;2023-08-07T04:34:50;15.00;99.90
26051;DHT22;13825;53.496;10.020;2023-08-07T04:37:17;15.10;99.90
26051;DHT22;13825;53.496;10.020;2023-08-07T04:39:44;15.00;99.90
26051;DHT22;13825;53.496;10.020;2023-08-07T04:42:11;15.10;99.90
26051;DHT22;13825;53.496;10.020;2023-08-07T04:44:38;15.10;99.90
26051;DHT22;13825;53.496;10.020;2023-08-07T04:47:06;15.10;99.90
26051;DHT22;13825;53.496;10.020;2023-08-07T04:49:33;15.10;99.90
26051;DHT22;13825;53.496;10.020;2023-08-07T04:52:00;15.10;99.90
26051;DHT22;13825;53.496;10.020;2023-08-07T04:54:27;15.10;99.90
26051;DHT22;13825;53.496;10.020;2023-08-07T04:56:55;15.10;99.90
26051;DHT22;13825;53.496;10.020;2023-08-07T04:59:21;15.10;99.90
26051;DHT22;13825;53.496;10.020;2023-08-07T05:01:51;15.20;99.90
26051;DHT22;13825;53.496;10.020;2023-08-07T05:04:20;15.20;99.90
26051;DHT22;13825;53.496;10.020;2023-08-07T05:06:46;15.20;99.90
26051;DHT22;13825;53.496;10.020;2023-08-07T05:09:14;15.30;99.90
26051;DHT22;13825;53.496;10.020;2023-08-07T05:11:42;15.20;99.90
26051;DHT22;13825;53.496;10.020;2023-08-07T05:14:09;15.20;99.90
26051;DHT22;13825;53.496;10.020;2023-08-07T05:16:36;15.20;99.90
26051;DHT22;13825;53.496;10.020;2023-08-07T05:19:03;15.30;99.90
26051;DHT22;13825;53.496;10.020;2023-08-07T05:21:31;15.30;99.90
26051;DHT22;13825;53.496;10.020;2023-08-07T05:23:58;15.30;99.90
26051;DHT22;13825;53.496;10.020;2023-08-07T05:26:25;15.30;99.90
26051;DHT22;13825;53.496;10.020;2023-08-07T05:28:52;15.30;99.90
26051;DHT22;13825;53.496;10.020;2023-08-07T05:31:21;15.40;99.90
26051;DHT22;13825;53.496;10.020;2023-08-07T05:33:48;15.40;99.90
26051;DHT22;13825;53.496;10.020;2023-08-07T05:36:15;15.40;99.90
26051;DHT22;13825;53.496;10.020;2023-08-07T05:38:43;15.50;99.90
26051;DHT22;13825;53.496;10.020;2023-08-07T05:41:10;15.60;99.90
26051;DHT22;13825;53.496;10.020;2023-08-07T05:43:38;15.50;99.90
26051;DHT22;13825;53.496;10.020;2023-08-07T05:46:05;15.50;99.90
26051;DHT22;13825;53.496;10.020;2023-08-07T05:48:32;15.50;99.90
26051;DHT22;13825;53.496;10.020;2023-08-07T05:50:59;15.60;99.90
26051;DHT22;13825;53.496;10.020;2023-08-07T05:53:25;15.70;99.90
26051;DHT22;13825;53.496;10.020;2023-08-07T05:55:55;15.60;99.90
26051;DHT22;13825;53.496;10.020;2023-08-07T05:58:25;15.70;99.90
26051;DHT22;13825;53.496;10.020;2023-08-07T06:00:56;15.70;99.90
26051;DHT22;13825;53.496;10.020;2023-08-07T06:03:25;15.70;99.90
26051;DHT22;13825;53.496;10.020;2023-08-07T06:05:52;15.80;99.90
26051;DHT22;13825;53.496;10.020;2023-08-07T06:08:19;15.90;99.90
26051;DHT22;13825;53.496;10.020;2023-08-07T06:10:45;15.90;99.90
26051;DHT22;13825;53.496;10.020;2023-08-07T06:13:14;15.80;99.90
26051;DHT22;13825;53.496;10.020;2023-08-07T06:15:41;15.90;99.90
26051;DHT22;13825;53.496;10.020;2023-08-07T06:18:08;15.90;99.90
26051;DHT22;13825;53.496;10.020;2023-08-07T06:20:34;16.00;99.90
26051;DHT22;13825;53.496;10.020;2023-08-07T06:23:01;16.10;99.90
26051;DHT22;13825;53.496;10.020;2023-08-07T06:25:28;16.20;99.90
26051;DHT22;13825;53.496;10.020;2023-08-07T06:27:55;16.30;99.90
26051;DHT22;13825;53.496;10.020;2023-08-07T06:30:23;16.30;99.90
26051;DHT22;13825;53.496;10.020;2023-08-07T06:32:50;16.30;99.90
26051;DHT22;13825;53.496;10.020;2023-08-07T06:35:20;16.30;99.90
26051;DHT22;13825;53.496;10.020;2023-08-07T06:37:47;16.40;99.90
26051;DHT22;13825;53.496;10.020;2023-08-07T06:40:14;16.40;99.90
26051;DHT22;13825;53.496;10.020;2023-08-07T06:42:41;16.40;99.90
26051;DHT22;13825;53.496;10.020;2023-08-07T06:45:09;16.40;99.90
26051;DHT22;13825;53.496;10.020;2023-08-07T06:47:37;16.40;99.90
26051;DHT22;13825;53.496;10.020;2023-08-07T06:50:04;16.50;99.90
26051;DHT22;13825;53.496;10.020;2023-08-07T06:52:40;16.50;99.90
26051;DHT22;13825;53.496;10.020;2023-08-07T06:55:15;16.50;99.90
26051;DHT22;13825;53.496;10.020;2023-08-07T06:57:43;16.40;99.90
26051;DHT22;13825;53.496;10.020;2023-08-07T07:00:16;16.50;99.90
26051;DHT22;13825;53.496;10.020;2023-08-07T07:03:11;16.40;99.90
26051;DHT22;13825;53.496;10.020;2023-08-07T07:05:42;16.40;99.90
26051;DHT22;13825;53.496;10.020;2023-08-07T07:08:17;16.30;99.90
26051;DHT22;13825;53.496;10.020;2023-08-07T07:10:44;16.20;99.90
26051;DHT22;13825;53.496;10.020;2023-08-07T07:13:11;16.20;99.90
26051;DHT22;13825;53.496;10.020;2023-08-07T07:15:38;16.30;99.90
26051;DHT22;13825;53.496;10.020;2023-08-07T07:18:07;16.20;99.90
26051;DHT22;13825;53.496;10.020;2023-08-07T07:20:33;16.20;99.90
26051;DHT22;13825;53.496;10.020;2023-08-07T07:23:00;16.10;99.90
26051;DHT22;13825;53.496;10.020;2023-08-07T07:25:28;16.00;99.90
26051;DHT22;13825;53.496;10.020;2023-08-07T07:27:55;15.70;99.90
26051;DHT22;13825;53.496;10.020;2023-08-07T07:30:24;15.80;99.90
26051;DHT22;13825;53.496;10.020;2023-08-07T07:32:51;15.90;99.90
26051;DHT22;13825;53.496;10.020;2023-08-07T07:35:22;16.00;50.70
26051;DHT22;13825;53.496;10.020;2023-08-07T07:37:49;16.00;1.00
26051;DHT22;13825;53.496;10.020;2023-08-07T07:40:16;15.90;99.90
26051;DHT22;13825;53.496;10.020;2023-08-07T07:42:43;15.90;38.10
26051;DHT22;13825;53.496;10.020;2023-08-07T07:45:12;15.90;14.40
26051;DHT22;13825;53.496;10.020;2023-08-07T07:47:40;15.90;1.00
26051;DHT22;13825;53.496;10.020;2023-08-07T07:50:08;16.00;99.60
26051;DHT22;13825;53.496;10.020;2023-08-07T07:52:36;16.10;1.00
26051;DHT22;13825;53.496;10.020;2023-08-07T07:55:03;16.40;1.00
26051;DHT22;13825;53.496;10.020;2023-08-07T07:57:31;16.60;1.00
26051;DHT22;13825;53.496;10.020;2023-08-07T07:59:58;16.70;26.20
26051;DHT22;13825;53.496;10.020;2023-08-07T08:02:26;16.80;1.00
26051;DHT22;13825;53.496;10.020;2023-08-07T08:11:02;17.30;99.90
26051;DHT22;13825;53.496;10.020;2023-08-07T08:13:46;17.10;1.00
26051;DHT22;13825;53.496;10.020;2023-08-07T08:16:18;16.80;99.90
26051;DHT22;13825;53.496;10.020;2023-08-07T08:18:47;16.50;99.90
26051;DHT22;13825;53.496;10.020;2023-08-07T08:21:14;16.00;1.00
26051;DHT22;13825;53.496;10.020;2023-08-07T08:23:41;15.20;99.90
26051;DHT22;13825;53.496;10.020;2023-08-07T08:26:10;14.80;99.90
26051;DHT22;13825;53.496;10.020;2023-08-07T08:28:38;15.10;99.90
26051;DHT22;13825;53.496;10.020;2023-08-07T08:31:07;15.30;99.90
26051;DHT22;13825;53.496;10.020;2023-08-07T08:33:34;15.50;99.90
26051;DHT22;13825;53.496;10.020;2023-08-07T08:36:01;15.50;99.90
26051;DHT22;13825;53.496;10.020;2023-08-07T08:38:29;15.20;99.90
26051;DHT22;13825;53.496;10.020;2023-08-07T08:41:06;15.00;99.90
26051;DHT22;13825;53.496;10.020;2023-08-07T08:43:38;15.20;99.90
26051;DHT22;13825;53.496;10.020;2023-08-07T08:46:08;15.40;99.90
26051;DHT22;13825;53.496;10.020;2023-08-07T08:48:38;15.70;99.90
26051;DHT22;13825;53.496;10.020;2023-08-07T08:51:06;16.00;99.90
26051;DHT22;13825;53.496;10.020;2023-08-07T08:53:35;16.50;52.80
26051;DHT22;13825;53.496;10.020;2023-08-07T08:56:06;16.70;1.00
26051;DHT22;13825;53.496;10.020;2023-08-07T08:58:36;17.20;99.90
26051;DHT22;13825;53.496;10.020;2023-08-07T09:01:04;17.40;1.00
26051;DHT22;13825;53.496;10.020;2023-08-07T09:03:33;17.40;1.00
26051;DHT22;13825;53.496;10.020;2023-08-07T09:06:00;17.30;1.00
26051;DHT22;13825;53.496;10.020;2023-08-07T09:08:27;16.70;20.80
26051;DHT22;13825;53.496;10.020;2023-08-07T09:10:56;16.80;1.00
26051;DHT22;13825;53.496;10.020;2023-08-07T09:13:23;17.00;35.20
26051;DHT22;13825;53.496;10.020;2023-08-07T09:15:54;17.20;1.00
26051;DHT22;13825;53.496;10.020;2023-08-07T09:18:22;17.30;1.00
26051;DHT22;13825;53.496;10.020;2023-08-07T09:20:49;17.40;1.00
26051;DHT22;13825;53.496;10.020;2023-08-07T09:23:19;17.30;99.90
26051;DHT22;13825;53.496;10.020;2023-08-07T09:25:47;17.30;99.90
26051;DHT22;13825;53.496;10.020;2023-08-07T09:28:17;17.50;1.00
26051;DHT22;13825;53.496;10.020;2023-08-07T09:30:51;17.40;99.90
26051;DHT22;13825;53.496;10.020;2023-08-07T09:33:26;17.60;99.90
26051;DHT22;13825;53.496;10.020;2023-08-07T09:35:57;17.80;99.90
26051;DHT22;13825;53.496;10.020;2023-08-07T09:38:28;17.90;99.90
26051;DHT22;13825;53.496;10.020;2023-08-07T09:40:58;18.00;99.90
26051;DHT22;13825;53.496;10.020;2023-08-07T09:43:25;18.10;99.90
26051;DHT22;13825;53.496;10.020;2023-08-07T09:46:02;18.20;99.90
26051;DHT22;13825;53.496;10.020;2023-08-07T09:48:39;18.30;99.90
26051;DHT22;13825;53.496;10.020;2023-08-07T09:51:07;18.10;1.00
26051;DHT22;13825;53.496;10.020;2023-08-07T09:53:34;18.20;92.70
26051;DHT22;13825;53.496;10.020;2023-08-07T09:56:04;18.00;54.40
26051;DHT22;13825;53.496;10.020;2023-08-07T09:58:36;17.60;94.80
26051;DHT22;13825;53.496;10.020;2023-08-07T10:01:08;17.50;99.90
26051;DHT22;13825;53.496;10.020;2023-08-07T10:03:39;17.40;99.90
26051;DHT22;13825;53.496;10.020;2023-08-07T10:06:10;17.40;99.90
26051;DHT22;13825;53.496;10.020;2023-08-07T10:08:43;17.40;99.90
26051;DHT22;13825;53.496;10.020;2023-08-07T10:11:34;17.40;99.90
26051;DHT22;13825;53.496;10.020;2023-08-07T10:14:11;17.50;99.90
26051;DHT22;13825;53.496;10.020;2023-08-07T10:16:40;17.40;99.90
26051;DHT22;13825;53.496;10.020;2023-08-07T10:19:15;17.30;99.90
26051;DHT22;13825;53.496;10.020;2023-08-07T10:21:54;17.50;99.90
26051;DHT22;13825;53.496;10.020;2023-08-07T10:24:31;17.50;99.90
26051;DHT22;13825;53.496;10.020;2023-08-07T10:27:02;17.60;99.90
26051;DHT22;13825;53.496;10.020;2023-08-07T10:29:47;17.60;99.90
26051;DHT22;13825;53.496;10.020;2023-08-07T10:32:45;17.80;99.90
26051;DHT22;13825;53.496;10.020;2023-08-07T10:35:36;17.70;99.90
26051;DHT22;13825;53.496;10.020;2023-08-07T10:38:12;17.60;99.90
26051;DHT22;13825;53.496;10.020;2023-08-07T10:41:05;17.50;99.90
26051;DHT22;13825;53.496;10.020;2023-08-07T10:43:55;17.40;99.90
26051;DHT22;13825;53.496;10.020;2023-08-07T10:46:47;16.90;99.90
26051;DHT22;13825;53.496;10.020;2023-08-07T10:49:40;16.80;99.90
26051;DHT22;13825;53.496;10.020;2023-08-07T10:52:21;16.90;99.90
26051;DHT22;13825;53.496;10.020;2023-08-07T10:54:51;16.80;99.90
26051;DHT22;13825;53.496;10.020;2023-08-07T10:57:19;17.00;1.00
26051;DHT22;13825;53.496;10.020;2023-08-07T10:59:55;17.40;99.90
26051;DHT22;13825;53.496;10.020;2023-08-07T11:02:31;18.10;99.90
26051;DHT22;13825;53.496;10.020;2023-08-07T11:05:05;18.50;99.90
26051;DHT22;13825;53.496;10.020;2023-08-07T11:10:13;18.60;99.90
26051;DHT22;13825;53.496;10.020;2023-08-07T11:13:01;18.50;79.40
26051;DHT22;13825;53.496;10.020;2023-08-07T11:15:28;18.60;1.00
26051;DHT22;13825;53.496;10.020;2023-08-07T11:18:09;18.50;1.00
26051;DHT22;13825;53.496;10.020;2023-08-07T11:20:46;18.70;1.00
26051;DHT22;13825;53.496;10.020;2023-08-07T11:23:43;18.90;1.00
26051;DHT22;13825;53.496;10.020;2023-08-07T11:29:24;18.10;1.00
26051;DHT22;13825;53.496;10.020;2023-08-07T11:31:53;17.00;1.00
26051;DHT22;13825;53.496;10.020;2023-08-07T11:34:21;15.90;93.90
26051;DHT22;13825;53.496;10.020;2023-08-07T11:36:55;15.70;1.00
26051;DHT22;13825;53.496;10.020;2023-08-07T11:39:26;16.30;99.90
26051;DHT22;13825;53.496;10.020;2023-08-07T12:59:31;17.20;99.90
26051;DHT22;13825;53.496;10.020;2023-08-07T13:02:00;17.00;1.00
26051;DHT22;13825;53.496;10.020;2023-08-07T13:04:40;16.70;1.00
26051;DHT22;13825;53.496;10.020;2023-08-07T13:07:07;16.40;1.00
26051;DHT22;13825;53.496;10.020;2023-08-07T13:09:40;16.20;99.90
26051;DHT22;13825;53.496;10.020;2023-08-07T13:12:12;15.90;26.00
26051;DHT22;13825;53.496;10.020;2023-08-07T13:14:41;15.70;1.00
26051;DHT22;13825;53.496;10.020;2023-08-07T13:17:08;15.90;1.00
26051;DHT22;13825;53.496;10.020;2023-08-07T13:19:38;16.30;1.00
26051;DHT22;13825;53.496;10.020;2023-08-07T13:22:12;16.50;99.90
26051;DHT22;13825;53.496;10.020;2023-08-07T13:24:40;17.10;1.00
26051;DHT22;13825;53.496;10.020;2023-08-07T13:27:10;17.10;1.00
26051;DHT22;13825;53.496;10.020;2023-08-07T13:29:37;17.20;1.00
26051;DHT22;13825;53.496;10.020;2023-08-07T13:32:14;17.20;99.90
26051;DHT22;13825;53.496;10.020;2023-08-07T13:34:55;16.90;99.90
26051;DHT22;13825;53.496;10.020;2023-08-07T13:37:25;17.30;1.00
26051;DHT22;13825;53.496;10.020;2023-08-07T13:39:54;18.00;1.00
26051;DHT22;13825;53.496;10.020;2023-08-07T13:42:26;18.50;99.90
26051;DHT22;13825;53.496;10.020;2023-08-07T13:44:58;18.90;1.00
26051;DHT22;13825;53.496;10.020;2023-08-07T13:55:12;17.00;1.00
26051;DHT22;13825;53.496;10.020;2023-08-07T13:57:39;17.00;99.90
26051;DHT22;13825;53.496;10.020;2023-08-07T14:00:07;17.00;99.90
26051;DHT22;13825;53.496;10.020;2023-08-07T14:02:37;17.20;1.00
26051;DHT22;13825;53.496;10.020;2023-08-07T14:05:15;17.50;99.90
26051;DHT22;13825;53.496;10.020;2023-08-07T14:07:44;17.70;1.00
26051;DHT22;13825;53.496;10.020;2023-08-07T14:10:14;17.70;1.00
26051;DHT22;13825;53.496;10.020;2023-08-07T14:12:57;17.80;1.00
26051;DHT22;13825;53.496;10.020;2023-08-07T14:15:44;17.50;1.00
26051;DHT22;13825;53.496;10.020;2023-08-07T14:20:47;18.70;1.00
26051;DHT22;13825;53.496;10.020;2023-08-07T14:23:15;18.20;1.00
26051;DHT22;13825;53.496;10.020;2023-08-07T14:25:50;17.70;1.00
26051;DHT22;13825;53.496;10.020;2023-08-07T14:28:26;17.20;1.00
26051;DHT22;13825;53.496;10.020;2023-08-07T14:31:08;16.90;99.90
26051;DHT22;13825;53.496;10.020;2023-08-07T14:33:42;16.90;91.10
26051;DHT22;13825;53.496;10.020;2023-08-07T14:36:11;17.20;91.30
26051;DHT22;13825;53.496;10.020;2023-08-07T14:38:41;17.30;1.00
26051;DHT22;13825;53.496;10.020;2023-08-07T14:43:42;17.00;21.90
26051;DHT22;13825;53.496;10.020;2023-08-07T14:46:27;17.10;99.90
26051;DHT22;13825;53.496;10.020;2023-08-07T14:49:04;17.30;99.90
26051;DHT22;13825;53.496;10.020;2023-08-07T14:51:38;17.70;1.00
26051;DHT22;13825;53.496;10.020;2023-08-07T14:54:11;18.50;1.00
26051;DHT22;13825;53.496;10.020;2023-08-07T14:56:55;18.90;1.00
26051;DHT22;13825;53.496;10.020;2023-08-07T14:59:41;18.80;1.00
26051;DHT22;13825;53.496;10.020;2023-08-07T15:02:20;18.10;1.00
26051;DHT22;13825;53.496;10.020;2023-08-07T15:04:47;17.70;1.00
26051;DHT22;13825;53.496;10.020;2023-08-07T15:10:21;17.10;99.90
26051;DHT22;13825;53.496;10.020;2023-08-07T15:12:58;17.10;99.90
26051;DHT22;13825;53.496;10.020;2023-08-07T15:17:55;17.40;99.90
26051;DHT22;13825;53.496;10.020;2023-08-07T15:20:25;17.50;99.90
26051;DHT22;13825;53.496;10.020;2023-08-07T15:22:53;18.10;1.00
26051;DHT22;13825;53.496;10.020;2023-08-07T15:25:20;18.20;1.00
26051;DHT22;13825;53.496;10.020;2023-08-07T15:27:49;17.90;1.00
26051;DHT22;13825;53.496;10.020;2023-08-07T15:30:22;18.00;1.00
26051;DHT22;13825;53.496;10.020;2023-08-07T15:32:49;17.90;31.70
26051;DHT22;13825;53.496;10.020;2023-08-07T15:35:17;17.70;55.40
26051;DHT22;13825;53.496;10.020;2023-08-07T15:37:44;17.60;99.90
26051;DHT22;13825;53.496;10.020;2023-08-07T15:40:11;17.20;99.90
26051;DHT22;13825;53.496;10.020;2023-08-07T15:42:40;17.10;99.90
26051;DHT22;13825;53.496;10.020;2023-08-07T15:45:11;17.20;99.90
26051;DHT22;13825;53.496;10.020;2023-08-07T15:47:41;17.10;99.90
26051;DHT22;13825;53.496;10.020;2023-08-07T15:50:09;17.10;84.80
26051;DHT22;13825;53.496;10.020;2023-08-07T15:52:36;17.50;9.40
26051;DHT22;13825;53.496;10.020;2023-08-07T15:55:03;17.80;19.20
26051;DHT22;13825;53.496;10.020;2023-08-07T15:57:30;17.60;14.30
26051;DHT22;13825;53.496;10.020;2023-08-07T16:00:10;17.60;1.00
26051;DHT22;13825;53.496;10.020;2023-08-07T16:02:37;17.20;73.90
26051;DHT22;13825;53.496;10.020;2023-08-07T16:05:06;17.00;1.00
26051;DHT22;13825;53.496;10.020;2023-08-07T16:07:39;16.20;99.90
26051;DHT22;13825;53.496;10.020;2023-08-07T16:10:07;14.00;99.90
26051;DHT22;13825;53.496;10.020;2023-08-07T16:12:34;13.50;99.90
26051;DHT22;13825;53.496;10.020;2023-08-07T16:15:02;13.60;99.90
26051;DHT22;13825;53.496;10.020;2023-08-07T16:17:30;13.90;99.90
26051;DHT22;13825;53.496;10.020;2023-08-07T16:19:57;14.20;99.90
26051;DHT22;13825;53.496;10.020;2023-08-07T16:22:27;14.70;1.00
26051;DHT22;13825;53.496;10.020;2023-08-07T16:24:58;15.20;99.90
26051;DHT22;13825;53.496;10.020;2023-08-07T16:27:26;15.40;99.90
26051;DHT22;13825;53.496;10.020;2023-08-07T16:29:54;16.20;92.10
26051;DHT22;13825;53.496;10.020;2023-08-07T16:32:21;18.10;99.90
26051;DHT22;13825;53.496;10.020;2023-08-07T16:34:49;19.30;1.00
26051;DHT22;13825;53.496;10.020;2023-08-07T16:37:16;20.50;99.90
26051;DHT22;13825;53.496;10.020;2023-08-07T16:39:49;20.70;99.90
26051;DHT22;13825;53.496;10.020;2023-08-07T16:42:18;21.20;99.90
26051;DHT22;13825;53.496;10.020;2023-08-07T16:44:45;20.90;60.00
26051;DHT22;13825;53.496;10.020;2023-08-07T16:49:43;20.90;1.00
26051;DHT22;13825;53.496;10.020;2023-08-07T16:52:13;21.60;1.00
26051;DHT22;13825;53.496;10.020;2023-08-07T16:54:40;21.00;1.00
26051;DHT22;13825;53.496;10.020;2023-08-07T16:57:08;22.00;1.00
26051;DHT22;13825;53.496;10.020;2023-08-07T16:59:36;23.60;1.00
26051;DHT22;13825;53.496;10.020;2023-08-07T17:02:04;22.40;1.00
26051;DHT22;13825;53.496;10.020;2023-08-07T17:04:34;19.40;1.00
26051;DHT22;13825;53.496;10.020;2023-08-07T17:07:05;18.40;1.00
26051;DHT22;13825;53.496;10.020;2023-08-07T17:09:32;17.40;1.00
26051;DHT22;13825;53.496;10.020;2023-08-07T17:12:09;17.10;1.00
26051;DHT22;13825;53.496;10.020;2023-08-07T17:14:38;16.70;97.60
26051;DHT22;13825;53.496;10.020;2023-08-07T17:17:08;16.80;99.90
26051;DHT22;13825;53.496;10.020;2023-08-07T17:19:36;16.60;99.90
26051;DHT22;13825;53.496;10.020;2023-08-07T17:22:07;16.60;99.90
26051;DHT22;13825;53.496;10.020;2023-08-07T17:24:34;16.60;99.90
26051;DHT22;13825;53.496;10.020;2023-08-07T17:27:02;16.50;99.90